Legend Of The Seas — C6SL5 — position and weather

sailwx.info

Track history (hours):
 
Tides and Currents Weather Stations Pressure Air Temp Water Temp Dewpoint Dewpoint Depression Visibility Wind Speed Wind Dir Waves Ship Positions

Legend Of The Seas

Operator: Royal Caribbean Cruises Ltd

Last reported at 2019-Jan-21 02:42 UTC. Time now 2019-Jan-24 07:15 UTC.
Position N 20°42' W 086°51'.

Type: Passenger vessel. MMSI: 311378000.

Date/timePositionNaut miles runAvg speedWind from/ knotsBaromVisibWave heightAir tempDewpointWater temp
2019-Jan-21 02:42N 20°42' W 086°51'317.8
2019-Jan-21 02:30N 20°39' W 086°54'917.5
2019-Jan-21 02:00N 20°32' W 086°59'3 5.7
2019-Jan-21 01:28N 20°29' W 086°59'0 0.0
2019-Jan-21 00:58N 20°29' W 086°59'0 0.0
2019-Jan-21 00:28N 20°29' W 086°59'0 0.0
2019-Jan-20 23:58N 20°29' W 086°59'0 0.0
2019-Jan-20 23:28N 20°29' W 086°59'0 0.0
2019-Jan-20 22:58N 20°29' W 086°59'0 0.0
2019-Jan-20 22:28N 20°29' W 086°59'0 0.0
2019-Jan-20 21:58N 20°29' W 086°59'0 0.0
2019-Jan-20 21:28N 20°29' W 086°59'0 0.0
2019-Jan-20 20:58N 20°29' W 086°59'0 0.0
2019-Jan-20 20:28N 20°29' W 086°59'0 0.0
2019-Jan-20 19:58N 20°29' W 086°59'0 0.0
2019-Jan-20 19:28N 20°29' W 086°59'0 0.0
2019-Jan-20 18:58N 20°29' W 086°59'0 0.0
2019-Jan-20 18:28N 20°29' W 086°59'0 0.0
2019-Jan-20 17:58N 20°29' W 086°59'0 0.0
2019-Jan-20 17:28N 20°29' W 086°59'0 0.0
2019-Jan-20 16:58N 20°29' W 086°59'0 0.0
2019-Jan-20 16:28N 20°29' W 086°59'0 0.0
2019-Jan-20 15:58N 20°29' W 086°59'0 0.0
2019-Jan-20 15:28N 20°29' W 086°59'0 0.0
2019-Jan-20 14:58N 20°29' W 086°59'0 0.0
2019-Jan-20 14:28N 20°29' W 086°59'0 0.8
2019-Jan-20 14:00N 20°29' W 086°59'1 2.3
2019-Jan-20 13:30N 20°30' W 086°60'3 5.1
2019-Jan-20 13:00N 20°31' W 086°58'0 1.0
2019-Jan-20 12:30N 20°31' W 086°58'4 8.9
2019-Jan-20 12:00N 20°35' W 086°57'  
2019-Jan-13 00:55N 09°37' W 080°02'614.4
2019-Jan-13 00:30N 09°34' W 079°57'714.3
2019-Jan-13 00:00N 09°27' W 079°54'510.1
2019-Jan-12 23:31N 09°22' W 079°54'1 1.4
2019-Jan-12 23:00N 09°21' W 079°53'0 0.0
2019-Jan-12 22:29N 09°21' W 079°53'0 0.0
2019-Jan-12 21:59N 09°21' W 079°53'0 0.0
2019-Jan-12 21:29N 09°21' W 079°53'0 0.0
2019-Jan-12 20:59N 09°21' W 079°53'0 0.0
2019-Jan-12 20:29N 09°21' W 079°53'0 0.0
2019-Jan-12 19:59N 09°21' W 079°53'0 0.0
2019-Jan-12 19:29N 09°21' W 079°53'0 0.0
2019-Jan-12 18:59N 09°21' W 079°53'0 0.0
2019-Jan-12 18:29N 09°21' W 079°53'0 0.0
2019-Jan-12 17:59N 09°21' W 079°53'0 0.0
2019-Jan-12 17:29N 09°21' W 079°53'0 0.0
2019-Jan-12 16:59N 09°21' W 079°53'0 0.0
2019-Jan-12 16:29N 09°21' W 079°53'0 0.0
2019-Jan-12 15:59N 09°21' W 079°53'0 0.0
2019-Jan-12 15:29N 09°21' W 079°53'0 0.0
2019-Jan-12 14:59N 09°21' W 079°53'0 0.0
2019-Jan-12 14:29N 09°21' W 079°53'0 0.0
2019-Jan-12 13:59N 09°21' W 079°53'0 0.0
2019-Jan-12 13:29N 09°21' W 079°53'0 0.0
2019-Jan-12 12:59N 09°21' W 079°53'0 0.0
2019-Jan-12 12:29N 09°21' W 079°53'0 0.0
2019-Jan-12 11:59N 09°21' W 079°53'0 0.0
2019-Jan-12 11:29N 09°21' W 079°53'1 2.0
2019-Jan-12 11:01N 09°22' W 079°54'5 9.3
2019-Jan-12 10:31N 09°27' W 079°54'1019.6
2019-Jan-12 09:59N 09°37' W 079°51'1220.1
2019-Jan-12 09:24N 09°45' W 079°42'23721.4
2019-Jan-11 22:22N 10°18' W 075°45'719.7
2019-Jan-11 22:00N 10°19' W 075°38'611.7
2019-Jan-11 21:30N 10°21' W 075°32'4 6.5
2019-Jan-11 20:56N 10°24' W 075°32'0 0.0
2019-Jan-11 20:26N 10°24' W 075°32'0 0.0
2019-Jan-11 19:56N 10°24' W 075°32'0 0.0
2019-Jan-11 19:26N 10°24' W 075°32'0 0.0
2019-Jan-11 18:56N 10°24' W 075°32'0 0.0
2019-Jan-11 18:29N 10°24' W 075°32'0 0.0
2019-Jan-11 17:59N 10°24' W 075°32'0 0.0
2019-Jan-11 17:20N 10°24' W 075°32'0 0.0
2019-Jan-11 16:56N 10°24' W 075°32'0 0.0
2019-Jan-11 16:26N 10°24' W 075°32'0 0.0
2019-Jan-11 15:59N 10°24' W 075°32'0 0.0
2019-Jan-11 15:26N 10°24' W 075°32'0 0.0
2019-Jan-11 14:53N 10°24' W 075°32'0 0.0
2019-Jan-11 14:26N 10°24' W 075°32'0 0.0
2019-Jan-11 13:56N 10°24' W 075°32'0 0.0
2019-Jan-11 13:29N 10°24' W 075°32'0 0.0
2019-Jan-11 12:56N 10°24' W 075°32'0 0.0
2019-Jan-11 12:26N 10°24' W 075°32'0 0.1
2019-Jan-11 12:00N 10°24' W 075°32'1 2.7
2019-Jan-11 11:30N 10°23' W 075°33'4 8.6
2019-Jan-11 11:00N 10°19' W 075°34'5 9.7
2019-Jan-11 10:30N 10°19' W 075°39'611.8
2019-Jan-11 10:00N 10°22' W 075°44'1114.1
2019-Jan-11 09:13N 10°33' W 075°44'314.1
2019-Jan-11 08:59N 10°36' W 075°43'  
Track history (hours):
 
Tides and Currents Weather Stations Pressure Air Temp Water Temp Dewpoint Dewpoint Depression Visibility Wind Speed Wind Dir Waves Ship Positions

Legend Of The Seas

Operator: Royal Caribbean Cruises Ltd

Last reported at 2019-Jan-21 02:42 UTC. Time now 2019-Jan-24 07:15 UTC.
Position N 20°42' W 086°51'.

Type: Passenger vessel. MMSI: 311378000.

Date/timePositionNaut miles runAvg speedWind from/ knotsBaromVisibWave heightAir tempDewpointWater temp
2019-Jan-21 02:42N 20°42' W 086°51'317.8
2019-Jan-21 02:30N 20°39' W 086°54'917.5
2019-Jan-21 02:00N 20°32' W 086°59'3 5.7
2019-Jan-21 01:28N 20°29' W 086°59'0 0.0
2019-Jan-21 00:58N 20°29' W 086°59'0 0.0
2019-Jan-21 00:28N 20°29' W 086°59'0 0.0
2019-Jan-20 23:58N 20°29' W 086°59'0 0.0
2019-Jan-20 23:28N 20°29' W 086°59'0 0.0
2019-Jan-20 22:58N 20°29' W 086°59'0 0.0
2019-Jan-20 22:28N 20°29' W 086°59'0 0.0
2019-Jan-20 21:58N 20°29' W 086°59'0 0.0
2019-Jan-20 21:28N 20°29' W 086°59'0 0.0
2019-Jan-20 20:58N 20°29' W 086°59'0 0.0
2019-Jan-20 20:28N 20°29' W 086°59'0 0.0
2019-Jan-20 19:58N 20°29' W 086°59'0 0.0
2019-Jan-20 19:28N 20°29' W 086°59'0 0.0
2019-Jan-20 18:58N 20°29' W 086°59'0 0.0
2019-Jan-20 18:28N 20°29' W 086°59'0 0.0
2019-Jan-20 17:58N 20°29' W 086°59'0 0.0
2019-Jan-20 17:28N 20°29' W 086°59'0 0.0
2019-Jan-20 16:58N 20°29' W 086°59'0 0.0
2019-Jan-20 16:28N 20°29' W 086°59'0 0.0
2019-Jan-20 15:58N 20°29' W 086°59'0 0.0
2019-Jan-20 15:28N 20°29' W 086°59'0 0.0
2019-Jan-20 14:58N 20°29' W 086°59'0 0.0
2019-Jan-20 14:28N 20°29' W 086°59'0 0.8
2019-Jan-20 14:00N 20°29' W 086°59'1 2.3
2019-Jan-20 13:30N 20°30' W 086°60'3 5.1
2019-Jan-20 13:00N 20°31' W 086°58'0 1.0
2019-Jan-20 12:30N 20°31' W 086°58'4 8.9
2019-Jan-20 12:00N 20°35' W 086°57'  
2019-Jan-13 00:55N 09°37' W 080°02'614.4
2019-Jan-13 00:30N 09°34' W 079°57'714.3
2019-Jan-13 00:00N 09°27' W 079°54'510.1
2019-Jan-12 23:31N 09°22' W 079°54'1 1.4
2019-Jan-12 23:00N 09°21' W 079°53'0 0.0
2019-Jan-12 22:29N 09°21' W 079°53'0 0.0
2019-Jan-12 21:59N 09°21' W 079°53'0 0.0
2019-Jan-12 21:29N 09°21' W 079°53'0 0.0
2019-Jan-12 20:59N 09°21' W 079°53'0 0.0
2019-Jan-12 20:29N 09°21' W 079°53'0 0.0
2019-Jan-12 19:59N 09°21' W 079°53'0 0.0
2019-Jan-12 19:29N 09°21' W 079°53'0 0.0
2019-Jan-12 18:59N 09°21' W 079°53'0 0.0
2019-Jan-12 18:29N 09°21' W 079°53'0 0.0
2019-Jan-12 17:59N 09°21' W 079°53'0 0.0
2019-Jan-12 17:29N 09°21' W 079°53'0 0.0
2019-Jan-12 16:59N 09°21' W 079°53'0 0.0
2019-Jan-12 16:29N 09°21' W 079°53'0 0.0
2019-Jan-12 15:59N 09°21' W 079°53'0 0.0
2019-Jan-12 15:29N 09°21' W 079°53'0 0.0
2019-Jan-12 14:59N 09°21' W 079°53'0 0.0
2019-Jan-12 14:29N 09°21' W 079°53'0 0.0
2019-Jan-12 13:59N 09°21' W 079°53'0 0.0
2019-Jan-12 13:29N 09°21' W 079°53'0 0.0
2019-Jan-12 12:59N 09°21' W 079°53'0 0.0
2019-Jan-12 12:29N 09°21' W 079°53'0 0.0
2019-Jan-12 11:59N 09°21' W 079°53'0 0.0
2019-Jan-12 11:29N 09°21' W 079°53'1 2.0
2019-Jan-12 11:01N 09°22' W 079°54'5 9.3
2019-Jan-12 10:31N 09°27' W 079°54'1019.6
2019-Jan-12 09:59N 09°37' W 079°51'1220.1
2019-Jan-12 09:24N 09°45' W 079°42'23721.4
2019-Jan-11 22:22N 10°18' W 075°45'719.7
2019-Jan-11 22:00N 10°19' W 075°38'611.7
2019-Jan-11 21:30N 10°21' W 075°32'4 6.5
2019-Jan-11 20:56N 10°24' W 075°32'0 0.0
2019-Jan-11 20:26N 10°24' W 075°32'0 0.0
2019-Jan-11 19:56N 10°24' W 075°32'0 0.0
2019-Jan-11 19:26N 10°24' W 075°32'0 0.0
2019-Jan-11 18:56N 10°24' W 075°32'0 0.0
2019-Jan-11 18:29N 10°24' W 075°32'0 0.0
2019-Jan-11 17:59N 10°24' W 075°32'0 0.0
2019-Jan-11 17:20N 10°24' W 075°32'0 0.0
2019-Jan-11 16:56N 10°24' W 075°32'0 0.0
2019-Jan-11 16:26N 10°24' W 075°32'0 0.0
2019-Jan-11 15:59N 10°24' W 075°32'0 0.0
2019-Jan-11 15:26N 10°24' W 075°32'0 0.0
2019-Jan-11 14:53N 10°24' W 075°32'0 0.0
2019-Jan-11 14:26N 10°24' W 075°32'0 0.0
2019-Jan-11 13:56N 10°24' W 075°32'0 0.0
2019-Jan-11 13:29N 10°24' W 075°32'0 0.0
2019-Jan-11 12:56N 10°24' W 075°32'0 0.0
2019-Jan-11 12:26N 10°24' W 075°32'0 0.1
2019-Jan-11 12:00N 10°24' W 075°32'1 2.7
2019-Jan-11 11:30N 10°23' W 075°33'4 8.6
2019-Jan-11 11:00N 10°19' W 075°34'5 9.7
2019-Jan-11 10:30N 10°19' W 075°39'611.8
2019-Jan-11 10:00N 10°22' W 075°44'1114.1
2019-Jan-11 09:13N 10°33' W 075°44'314.1
2019-Jan-11 08:59N 10°36' W 075°43'  

Dump ship's entire track history